Time;durP1;ratioP1;P1;durP2;ratioP2;P2;SDS_P1;SDS_P2;PMS_P1;PMS_P2;Temp;Humidity;BMP_temperature;BMP_pressure;BME280_temperature;BME280_humidity;BME280_pressure;Samples;Min_cycle;Max_cycle;Signal;HPM_P1;HPM_P2
2022/11/12 00:02:17;;;;;;;9.03;7.43;;;;;;;;;;4962944;28;20520;-54
2022/11/12 00:04:43;;;;;;;8.47;7.43;;;;;;;;;;4939498;28;21010;-55
2022/11/12 00:07:09;;;;;;;11.30;8.03;;;;;;;;;;4947607;28;20972;-55
2022/11/12 00:09:35;;;;;;;11.13;8.50;;;;;;;;;;4940065;28;20953;-56
2022/11/12 00:12:01;;;;;;;9.33;7.97;;;;;;;;;;4964360;28;20942;-55
2022/11/12 00:14:27;;;;;;;10.00;8.27;;;;;;;;;;4941448;28;21027;-54
2022/11/12 00:16:53;;;;;;;8.53;7.63;;;;;;;;;;4964483;28;20457;-55
2022/11/12 00:19:19;;;;;;;12.77;8.57;;;;;;;;;;4922338;28;20485;-53
2022/11/12 00:21:45;;;;;;;11.23;8.43;;;;;;;;;;4960580;28;22313;-54
2022/11/12 00:24:11;;;;;;;10.10;7.20;;;;;;;;;;4940909;28;20479;-54
2022/11/12 00:26:37;;;;;;;7.93;6.87;;;;;;;;;;4967633;28;21263;-54
2022/11/12 00:29:03;;;;;;;10.23;7.60;;;;;;;;;;4922596;28;20555;-54
2022/11/12 00:31:29;;;;;;;9.57;6.63;;;;;;;;;;4962256;28;20438;-53
2022/11/12 00:33:55;;;;;;;8.47;6.43;;;;;;;;;;4936585;28;20465;-52
2022/11/12 00:36:21;;;;;;;11.30;7.03;;;;;;;;;;4963991;28;20433;-53
2022/11/12 00:38:46;;;;;;;13.10;6.67;;;;;;;;;;4939267;28;21717;-54
2022/11/12 00:41:12;;;;;;;8.10;6.53;;;;;;;;;;4964766;28;20453;-54
2022/11/12 00:43:38;;;;;;;7.70;6.53;;;;;;;;;;4940844;28;21078;-54
2022/11/12 00:46:04;;;;;;;9.60;7.60;;;;;;;;;;4960434;28;21092;-53
2022/11/12 00:48:30;;;;;;;9.77;6.33;;;;;;;;;;4946992;28;20500;-54
2022/11/12 00:51:00;;;;;;;7.47;6.33;;;;;;;;;;4956401;28;20441;-53
2022/11/12 00:53:26;;;;;;;9.70;7.17;;;;;;;;;;4952317;28;20438;-53
2022/11/12 00:55:52;;;;;;;8.00;6.70;;;;;;;;;;4956765;28;20434;-53
2022/11/12 00:58:19;;;;;;;10.47;6.77;;;;;;;;;;4947011;28;20552;-53
2022/11/12 01:00:45;;;;;;;7.93;7.13;;;;;;;;;;4939273;28;20821;-54
2022/11/12 01:03:11;;;;;;;9.50;7.33;;;;;;;;;;4959017;28;20438;-53
2022/11/12 01:05:37;;;;;;;9.73;6.83;;;;;;;;;;4944756;28;20441;-53
2022/11/12 01:08:03;;;;;;;8.73;6.97;;;;;;;;;;4961841;28;20453;-57
2022/11/12 01:10:29;;;;;;;8.30;6.00;;;;;;;;;;4947822;28;20473;-53
2022/11/12 01:12:55;;;;;;;8.40;6.27;;;;;;;;;;4953530;28;20617;-53
2022/11/12 01:15:21;;;;;;;11.93;7.30;;;;;;;;;;4941315;28;20452;-55
2022/11/12 01:17:47;;;;;;;11.50;7.73;;;;;;;;;;4956721;28;20533;-53
2022/11/12 01:20:13;;;;;;;8.93;7.10;;;;;;;;;;4938632;28;20498;-56
2022/11/12 01:22:39;;;;;;;9.33;6.50;;;;;;;;;;4959270;28;20927;-56
2022/11/12 01:25:05;;;;;;;8.90;8.03;;;;;;;;;;4940981;28;20465;-54
2022/11/12 01:27:31;;;;;;;9.53;7.10;;;;;;;;;;4966785;28;20469;-55
2022/11/12 01:29:58;;;;;;;13.90;6.10;;;;;;;;;;4925231;28;20446;-55
2022/11/12 01:32:24;;;;;;;7.50;6.03;;;;;;;;;;4962425;28;20509;-55
2022/11/12 01:34:50;;;;;;;11.07;6.40;;;;;;;;;;4922055;28;20453;-54
2022/11/12 01:37:16;;;;;;;8.03;6.60;;;;;;;;;;4960032;28;20449;-55
2022/11/12 01:39:42;;;;;;;8.90;6.00;;;;;;;;;;4939979;28;21121;-55
2022/11/12 01:42:08;;;;;;;9.20;6.90;;;;;;;;;;4960446;28;20445;-55
2022/11/12 01:44:34;;;;;;;10.20;7.03;;;;;;;;;;4927211;28;20442;-54
2022/11/12 01:47:03;;;;;;;8.33;6.27;;;;;;;;;;4961814;28;20441;-55
2022/11/12 01:49:31;;;;;;;11.13;6.90;;;;;;;;;;4937623;28;20469;-55
2022/11/12 01:51:59;;;;;;;11.07;7.13;;;;;;;;;;4961414;28;20434;-56
2022/11/12 01:54:25;;;;;;;9.80;6.30;;;;;;;;;;4939424;28;20962;-56
2022/11/12 01:56:51;;;;;;;9.57;7.13;;;;;;;;;;4961294;28;20437;-55
2022/11/12 01:59:19;;;;;;;8.30;6.27;;;;;;;;;;4937006;28;20473;-56
2022/11/12 02:01:45;;;;;;;24.73;9.33;;;;;;;;;;4944706;28;20783;-55
2022/11/12 02:04:11;;;;;;;8.93;6.80;;;;;;;;;;4941986;28;20538;-55
2022/11/12 02:06:37;;;;;;;9.13;6.10;;;;;;;;;;4943423;28;20444;-53
2022/11/12 02:09:03;;;;;;;8.00;5.80;;;;;;;;;;4920912;28;20485;-55
2022/11/12 02:11:29;;;;;;;7.90;5.93;;;;;;;;;;4945001;28;20449;-55
2022/11/12 02:13:57;;;;;;;7.40;6.47;;;;;;;;;;4938746;28;20475;-55
2022/11/12 02:16:24;;;;;;;7.70;6.10;;;;;;;;;;4943899;28;20443;-55
2022/11/12 02:18:50;;;;;;;13.80;9.10;;;;;;;;;;4955442;28;20971;-55
2022/11/12 02:21:20;;;;;;;9.23;6.93;;;;;;;;;;4960110;28;20526;-55
2022/11/12 02:23:46;;;;;;;14.43;7.73;;;;;;;;;;4959927;28;20468;-55
2022/11/12 02:26:12;;;;;;;12.60;8.20;;;;;;;;;;4964636;28;20840;-56
2022/11/12 02:28:38;;;;;;;10.30;7.57;;;;;;;;;;4939955;28;20481;-54
2022/11/12 02:31:04;;;;;;;12.33;7.40;;;;;;;;;;4963318;28;20456;-55
2022/11/12 02:33:30;;;;;;;9.67;7.13;;;;;;;;;;4960399;28;20473;-55
2022/11/12 02:35:56;;;;;;;8.87;6.70;;;;;;;;;;4944044;28;20475;-55
2022/11/12 02:38:22;;;;;;;8.83;6.83;;;;;;;;;;4941331;28;20478;-55
2022/11/12 02:40:48;;;;;;;9.20;7.00;;;;;;;;;;4957879;28;20445;-55
2022/11/12 02:43:14;;;;;;;9.63;5.97;;;;;;;;;;4921529;28;20442;-55
2022/11/12 02:45:40;;;;;;;8.60;6.80;;;;;;;;;;4958532;28;20439;-54
2022/11/12 02:48:06;;;;;;;9.97;6.80;;;;;;;;;;4938947;28;20460;-55
2022/11/12 02:50:32;;;;;;;9.00;6.70;;;;;;;;;;4958367;28;20448;-55
2022/11/12 02:52:58;;;;;;;8.20;6.13;;;;;;;;;;4957059;28;20437;-55
2022/11/12 02:55:23;;;;;;;9.30;6.40;;;;;;;;;;4960163;28;20466;-54
2022/11/12 02:57:49;;;;;;;8.10;6.27;;;;;;;;;;4959143;28;20430;-55
2022/11/12 03:00:17;;;;;;;8.13;5.60;;;;;;;;;;4955653;28;20450;-54
2022/11/12 03:02:57;;;;;;;10.33;7.47;;;;;;;;;;4953387;28;20453;-55
2022/11/12 03:05:23;;;;;;;8.80;6.00;;;;;;;;;;4951428;28;20425;-55
2022/11/12 03:07:49;;;;;;;8.23;6.10;;;;;;;;;;4949711;28;20430;-54
2022/11/12 03:10:15;;;;;;;7.73;5.73;;;;;;;;;;4920326;28;20445;-54
2022/11/12 03:12:41;;;;;;;7.03;5.20;;;;;;;;;;4961938;28;20437;-54
2022/11/12 03:15:07;;;;;;;8.50;6.53;;;;;;;;;;4924702;28;20445;-55
2022/11/12 03:17:34;;;;;;;7.23;5.90;;;;;;;;;;4957396;28;20453;-54
2022/11/12 03:19:59;;;;;;;8.50;5.10;;;;;;;;;;4935379;28;20500;-54
2022/11/12 03:22:25;;;;;;;7.03;5.70;;;;;;;;;;4956233;28;20465;-56
2022/11/12 03:24:51;;;;;;;6.43;5.73;;;;;;;;;;4956286;28;20445;-54
2022/11/12 03:27:17;;;;;;;9.80;5.20;;;;;;;;;;4963794;28;20715;-54
2022/11/12 03:29:43;;;;;;;5.87;5.27;;;;;;;;;;4936345;28;20472;-54
2022/11/12 03:32:09;;;;;;;7.60;5.30;;;;;;;;;;4960370;28;20527;-55
2022/11/12 03:34:35;;;;;;;6.30;5.57;;;;;;;;;;4933302;28;20458;-54
2022/11/12 03:37:01;;;;;;;6.20;5.23;;;;;;;;;;4960858;28;20481;-54
2022/11/12 03:39:27;;;;;;;6.70;4.90;;;;;;;;;;4952823;28;20485;-53
2022/11/12 03:41:53;;;;;;;7.10;5.20;;;;;;;;;;4962280;28;20436;-55
2022/11/12 03:44:19;;;;;;;7.00;5.77;;;;;;;;;;4939161;28;20460;-54
2022/11/12 03:46:45;;;;;;;7.10;5.17;;;;;;;;;;4961218;28;20453;-55
2022/11/12 03:49:11;;;;;;;8.80;5.47;;;;;;;;;;4917675;28;20461;-55
2022/11/12 03:51:37;;;;;;;6.20;5.23;;;;;;;;;;4944079;28;20444;-55
2022/11/12 03:54:03;;;;;;;6.23;5.20;;;;;;;;;;4953220;28;20541;-55
2022/11/12 03:56:29;;;;;;;7.67;4.47;;;;;;;;;;4960359;28;20444;-54
2022/11/12 03:58:55;;;;;;;6.07;4.30;;;;;;;;;;4954542;28;20698;-55
2022/11/12 04:01:21;;;;;;;5.47;4.50;;;;;;;;;;4960854;28;20549;-55
2022/11/12 04:03:47;;;;;;;8.00;5.67;;;;;;;;;;4955582;28;21194;-55
2022/11/12 04:08:57;;;;;;;6.10;5.00;;;;;;;;;;4933717;28;20460;-55
2022/11/12 04:11:23;;;;;;;5.87;4.50;;;;;;;;;;4960182;28;20450;-55
2022/11/12 04:13:49;;;;;;;7.97;5.17;;;;;;;;;;4944117;28;20438;-55
2022/11/12 04:21:50;;;;;;;5.27;4.43;;;;;;;;;;4961268;28;20469;-54
2022/11/12 04:27:04;;;;;;;6.90;5.10;;;;;;;;;;4959739;28;20477;-53
2022/11/12 04:32:15;;;;;;;7.53;5.10;;;;;;;;;;4960386;28;20830;-54
2022/11/12 04:34:40;;;;;;;8.50;5.43;;;;;;;;;;4955015;28;20439;-55
2022/11/12 04:37:07;;;;;;;6.90;5.57;;;;;;;;;;4961643;28;20418;-55
2022/11/12 04:39:33;;;;;;;8.40;5.60;;;;;;;;;;4939457;28;20480;-53
2022/11/12 04:44:59;;;;;;;6.57;5.00;;;;;;;;;;4965490;28;20532;-53
2022/11/12 04:47:26;;;;;;;5.17;4.30;;;;;;;;;;4962425;28;20461;-53
2022/11/12 04:49:52;;;;;;;6.03;4.17;;;;;;;;;;4945605;28;20449;-53
2022/11/12 04:52:18;;;;;;;6.27;4.40;;;;;;;;;;4924748;28;20437;-54
2022/11/12 04:54:44;;;;;;;6.33;4.60;;;;;;;;;;4964579;28;21063;-54
2022/11/12 04:57:10;;;;;;;5.30;3.73;;;;;;;;;;4942902;28;20434;-54
2022/11/12 04:59:36;;;;;;;5.40;4.90;;;;;;;;;;4937329;28;20602;-54
2022/11/12 05:02:02;;;;;;;5.07;4.23;;;;;;;;;;4964872;28;20438;-54
2022/11/12 05:04:28;;;;;;;7.97;5.50;;;;;;;;;;4930236;28;21209;-54
2022/11/12 05:06:57;;;;;;;5.97;4.40;;;;;;;;;;4964906;28;20434;-54
2022/11/12 05:09:24;;;;;;;5.10;4.60;;;;;;;;;;4944464;28;20481;-54
2022/11/12 05:11:50;;;;;;;6.40;4.40;;;;;;;;;;4958725;28;20453;-52
2022/11/12 05:14:16;;;;;;;4.67;4.10;;;;;;;;;;4955783;28;20465;-55
2022/11/12 05:16:42;;;;;;;5.10;4.37;;;;;;;;;;4960275;28;20525;-54
2022/11/12 05:19:08;;;;;;;6.30;4.07;;;;;;;;;;4954934;28;20480;-54
2022/11/12 05:24:19;;;;;;;7.17;5.00;;;;;;;;;;4939232;28;21039;-54
2022/11/12 05:26:45;;;;;;;4.80;4.27;;;;;;;;;;4954338;28;20994;-53
2022/11/12 05:29:11;;;;;;;6.03;5.43;;;;;;;;;;4964862;28;20726;-54
2022/11/12 05:31:37;;;;;;;10.50;4.67;;;;;;;;;;4940935;28;20438;-55
2022/11/12 05:34:03;;;;;;;8.33;3.40;;;;;;;;;;4965546;28;20441;-55
2022/11/12 05:36:29;;;;;;;5.93;4.63;;;;;;;;;;4951410;28;21381;-54
2022/11/12 05:38:55;;;;;;;5.03;3.80;;;;;;;;;;4957540;28;20478;-55
2022/11/12 05:41:21;;;;;;;4.60;4.00;;;;;;;;;;4950149;28;20446;-54
2022/11/12 05:43:47;;;;;;;5.50;3.70;;;;;;;;;;4957254;28;20589;-54
2022/11/12 05:46:13;;;;;;;6.20;4.60;;;;;;;;;;4961787;28;20440;-55
2022/11/12 05:48:39;;;;;;;4.70;4.00;;;;;;;;;;4957335;28;20462;-59
2022/11/12 05:51:05;;;;;;;4.50;3.63;;;;;;;;;;4962187;28;20584;-54
2022/11/12 05:53:31;;;;;;;6.13;4.20;;;;;;;;;;4948273;28;20470;-53
2022/11/12 05:56:04;;;;;;;4.17;3.77;;;;;;;;;;4959020;28;20847;-55
2022/11/12 05:58:31;;;;;;;8.63;5.57;;;;;;;;;;4933451;28;20568;-54
2022/11/12 06:00:57;;;;;;;5.43;3.50;;;;;;;;;;4952932;28;20441;-56
2022/11/12 06:03:23;;;;;;;4.03;3.30;;;;;;;;;;4938245;28;21003;-55
2022/11/12 06:05:49;;;;;;;5.33;4.13;;;;;;;;;;4965181;28;20470;-55
2022/11/12 06:08:15;;;;;;;5.43;4.43;;;;;;;;;;4951297;28;20446;-55
2022/11/12 06:10:41;;;;;;;8.37;4.77;;;;;;;;;;4961405;28;20511;-54
2022/11/12 06:13:07;;;;;;;6.77;4.47;;;;;;;;;;4936336;28;20442;-55
2022/11/12 06:15:33;;;;;;;5.90;4.13;;;;;;;;;;4963192;28;20438;-55
2022/11/12 06:17:59;;;;;;;4.27;3.87;;;;;;;;;;4934466;28;20473;-55
2022/11/12 06:20:25;;;;;;;7.57;3.90;;;;;;;;;;4960709;28;20524;-55
2022/11/12 06:22:50;;;;;;;7.50;4.87;;;;;;;;;;4961048;28;20539;-55
2022/11/12 06:25:17;;;;;;;3.93;3.53;;;;;;;;;;4965137;28;21042;-56
2022/11/12 06:27:42;;;;;;;5.93;4.00;;;;;;;;;;4943719;28;20569;-54
2022/11/12 06:30:09;;;;;;;6.00;4.57;;;;;;;;;;4966606;28;20498;-54
2022/11/12 06:32:35;;;;;;;4.43;3.97;;;;;;;;;;4924589;28;20529;-55
2022/11/12 06:35:01;;;;;;;5.30;4.57;;;;;;;;;;4964248;28;20516;-55
2022/11/12 06:37:27;;;;;;;4.27;3.87;;;;;;;;;;4959898;28;20450;-55
2022/11/12 06:39:53;;;;;;;4.60;4.10;;;;;;;;;;4965576;28;20484;-55
2022/11/12 06:42:18;;;;;;;4.30;3.73;;;;;;;;;;4954484;28;20461;-54
2022/11/12 06:44:44;;;;;;;7.47;4.07;;;;;;;;;;4965445;28;20470;-55
2022/11/12 06:47:10;;;;;;;4.90;3.90;;;;;;;;;;4959942;28;20434;-56
2022/11/12 06:49:36;;;;;;;6.00;4.50;;;;;;;;;;4960844;28;20855;-56
2022/11/12 06:52:02;;;;;;;6.17;4.90;;;;;;;;;;4934667;28;20438;-55
2022/11/12 06:54:28;;;;;;;5.30;3.97;;;;;;;;;;4960756;28;20966;-56
2022/11/12 06:56:54;;;;;;;5.80;4.33;;;;;;;;;;4955542;28;20436;-55
2022/11/12 06:59:20;;;;;;;5.30;3.90;;;;;;;;;;4960555;28;20572;-55
2022/11/12 07:01:46;;;;;;;3.87;3.47;;;;;;;;;;4919263;28;20456;-56
2022/11/12 07:04:12;;;;;;;5.67;4.43;;;;;;;;;;4961363;28;20441;-56
2022/11/12 07:06:38;;;;;;;5.37;4.40;;;;;;;;;;4954825;28;20540;-57
2022/11/12 07:09:04;;;;;;;3.70;3.30;;;;;;;;;;4960694;28;20524;-56
2022/11/12 07:11:30;;;;;;;4.30;3.90;;;;;;;;;;4959010;28;20476;-56
2022/11/12 07:13:56;;;;;;;3.77;3.37;;;;;;;;;;4958814;28;20923;-56
2022/11/12 07:16:22;;;;;;;4.50;3.60;;;;;;;;;;4944470;28;20450;-56
2022/11/12 07:18:48;;;;;;;4.23;3.43;;;;;;;;;;4926547;28;20571;-56
2022/11/12 07:21:15;;;;;;;4.37;3.33;;;;;;;;;;4959418;28;20445;-54
2022/11/12 07:23:41;;;;;;;4.40;3.83;;;;;;;;;;4935501;28;20462;-53
2022/11/12 07:26:08;;;;;;;4.33;3.70;;;;;;;;;;4958458;28;22212;-57
2022/11/12 07:28:34;;;;;;;5.27;4.50;;;;;;;;;;4952590;28;20449;-56
2022/11/12 07:31:00;;;;;;;4.90;4.20;;;;;;;;;;4940253;28;20438;-56
2022/11/12 07:33:28;;;;;;;5.80;4.37;;;;;;;;;;4927485;28;21262;-53
2022/11/12 07:36:00;;;;;;;4.20;3.77;;;;;;;;;;4949809;28;20453;-58
2022/11/12 07:38:27;;;;;;;4.70;3.87;;;;;;;;;;4940951;28;20607;-53
2022/11/12 07:40:58;;;;;;;5.30;4.00;;;;;;;;;;4925171;28;20446;-57
2022/11/12 07:43:24;;;;;;;5.30;3.67;;;;;;;;;;4962105;28;20445;-55
2022/11/12 07:45:50;;;;;;;4.20;3.30;;;;;;;;;;4956747;28;20457;-56
2022/11/12 07:48:16;;;;;;;4.63;3.63;;;;;;;;;;4930447;28;20441;-55
2022/11/12 07:50:41;;;;;;;8.00;4.80;;;;;;;;;;4956419;28;20449;-55
2022/11/12 07:53:07;;;;;;;4.33;3.43;;;;;;;;;;4939040;28;20955;-54
2022/11/12 07:55:33;;;;;;;5.03;3.97;;;;;;;;;;4959112;28;20446;-56
2022/11/12 07:57:59;;;;;;;6.53;3.73;;;;;;;;;;4920333;28;20445;-56
2022/11/12 08:00:25;;;;;;;5.13;3.20;;;;;;;;;;4957969;28;20444;-57
2022/11/12 08:02:51;;;;;;;4.40;4.00;;;;;;;;;;4938693;28;20430;-54
2022/11/12 08:05:17;;;;;;;6.33;3.77;;;;;;;;;;4961684;28;20429;-56
2022/11/12 08:07:43;;;;;;;3.80;3.10;;;;;;;;;;4925443;28;20797;-56
2022/11/12 08:10:09;;;;;;;5.83;4.30;;;;;;;;;;4949150;28;20966;-56
2022/11/12 08:12:35;;;;;;;4.77;4.07;;;;;;;;;;4941355;28;20480;-56
2022/11/12 08:15:01;;;;;;;5.00;3.80;;;;;;;;;;4966824;28;20470;-56
2022/11/12 08:17:27;;;;;;;6.60;4.63;;;;;;;;;;4944933;28;20224;-54
2022/11/12 08:19:54;;;;;;;3.60;3.30;;;;;;;;;;4947171;28;20853;-55
2022/11/12 08:22:20;;;;;;;4.47;3.93;;;;;;;;;;4955209;28;20443;-55
2022/11/12 08:24:46;;;;;;;5.30;3.40;;;;;;;;;;4951389;28;20459;-55
2022/11/12 08:27:12;;;;;;;4.20;3.80;;;;;;;;;;4959133;28;20499;-54
2022/11/12 08:29:38;;;;;;;4.80;3.83;;;;;;;;;;4928619;28;20997;-55
2022/11/12 08:32:04;;;;;;;7.10;5.60;;;;;;;;;;4962963;28;20422;-55
2022/11/12 08:34:30;;;;;;;6.43;4.70;;;;;;;;;;4936024;28;20534;-55
2022/11/12 08:36:56;;;;;;;8.83;5.53;;;;;;;;;;4962863;28;20624;-55
2022/11/12 08:39:22;;;;;;;13.53;4.63;;;;;;;;;;4919064;28;20572;-55
2022/11/12 08:41:48;;;;;;;5.70;5.20;;;;;;;;;;4963694;28;20445;-55
2022/11/12 08:44:14;;;;;;;19.13;13.87;;;;;;;;;;4938356;28;20442;-55
2022/11/12 08:46:40;;;;;;;13.47;9.30;;;;;;;;;;4959715;28;20461;-55
2022/11/12 08:49:06;;;;;;;7.20;6.50;;;;;;;;;;4950824;28;20434;-56
2022/11/12 08:51:33;;;;;;;6.33;4.63;;;;;;;;;;4956992;28;21046;-55
2022/11/12 08:53:59;;;;;;;5.87;5.30;;;;;;;;;;4934523;28;20458;-57
2022/11/12 08:56:25;;;;;;;6.77;5.50;;;;;;;;;;4968971;28;21083;-54
2022/11/12 08:58:51;;;;;;;6.47;5.27;;;;;;;;;;4934034;28;20481;-56
2022/11/12 09:01:17;;;;;;;6.17;4.53;;;;;;;;;;4956061;28;20538;-54
2022/11/12 09:03:43;;;;;;;6.20;4.83;;;;;;;;;;4934559;28;20434;-55
2022/11/12 09:06:09;;;;;;;4.87;4.40;;;;;;;;;;4955387;28;20446;-55
2022/11/12 09:08:35;;;;;;;7.47;5.13;;;;;;;;;;4923649;28;20466;-55
2022/11/12 09:11:01;;;;;;;7.20;4.20;;;;;;;;;;4967309;28;20485;-57
2022/11/12 09:13:27;;;;;;;4.90;4.33;;;;;;;;;;4926917;28;20528;-56
2022/11/12 09:15:53;;;;;;;5.97;4.30;;;;;;;;;;4950783;28;20445;-55
2022/11/12 09:18:19;;;;;;;6.67;4.57;;;;;;;;;;4959905;28;20462;-56
2022/11/12 09:20:45;;;;;;;5.13;3.97;;;;;;;;;;4966683;28;20445;-56
2022/11/12 09:23:12;;;;;;;5.20;4.30;;;;;;;;;;4944376;28;20449;-57
2022/11/12 09:25:38;;;;;;;5.30;4.77;;;;;;;;;;4964818;28;20867;-57
2022/11/12 09:28:08;;;;;;;5.00;3.90;;;;;;;;;;4939837;28;21006;-56
2022/11/12 09:30:34;;;;;;;4.90;4.00;;;;;;;;;;4939694;28;20446;-56
2022/11/12 09:33:00;;;;;;;7.40;4.30;;;;;;;;;;4966172;28;20445;-56
2022/11/12 09:35:26;;;;;;;5.03;4.07;;;;;;;;;;4939615;28;20846;-55
2022/11/12 09:37:52;;;;;;;4.70;3.70;;;;;;;;;;4960749;28;21112;-57
2022/11/12 09:40:18;;;;;;;4.43;3.93;;;;;;;;;;4960654;28;20907;-58
2022/11/12 09:42:47;;;;;;;5.40;3.40;;;;;;;;;;4964303;28;20884;-56
2022/11/12 09:45:15;;;;;;;4.37;3.70;;;;;;;;;;4901732;28;20446;-56
2022/11/12 09:47:42;;;;;;;5.17;3.73;;;;;;;;;;4947979;28;20457;-58
2022/11/12 09:50:20;;;;;;;4.00;3.60;;;;;;;;;;4958811;28;20430;-59
2022/11/12 09:52:47;;;;;;;4.00;3.37;;;;;;;;;;4962926;28;20441;-56
2022/11/12 09:55:29;;;;;;;5.10;4.60;;;;;;;;;;4943339;28;20477;-56
2022/11/12 09:57:55;;;;;;;3.97;3.23;;;;;;;;;;4943204;28;20450;-54
2022/11/12 10:00:21;;;;;;;5.43;3.23;;;;;;;;;;4938907;28;20662;-56
2022/11/12 10:02:51;;;;;;;4.03;3.63;;;;;;;;;;4964942;28;20445;-56
2022/11/12 10:05:17;;;;;;;5.97;4.93;;;;;;;;;;4937626;28;21041;-57
2022/11/12 10:07:55;;;;;;;3.90;3.37;;;;;;;;;;4931760;28;20449;-57
2022/11/12 10:10:24;;;;;;;4.90;4.40;;;;;;;;;;4943937;28;20827;-56
2022/11/12 10:13:09;;;;;;;4.07;3.53;;;;;;;;;;4953239;28;20546;-56
2022/11/12 10:18:46;;;;;;;4.50;4.10;;;;;;;;;;4889059;28;20620;-55
2022/11/12 10:21:21;;;;;;;4.30;3.83;;;;;;;;;;4955570;28;21037;-57
2022/11/12 10:23:48;;;;;;;4.83;4.30;;;;;;;;;;4931514;28;20965;-56
2022/11/12 10:26:18;;;;;;;4.70;3.63;;;;;;;;;;4948194;28;20485;-55
2022/11/12 10:29:02;;;;;;;7.67;4.80;;;;;;;;;;4948578;28;20887;-56
2022/11/12 10:31:28;;;;;;;6.30;3.80;;;;;;;;;;4954076;28;20474;-56
2022/11/12 10:33:58;;;;;;;5.50;4.30;;;;;;;;;;4961195;28;20463;-55
2022/11/12 10:36:32;;;;;;;7.67;5.17;;;;;;;;;;4940122;28;21469;-56
2022/11/12 10:38:58;;;;;;;5.70;4.87;;;;;;;;;;4936442;28;20486;-57
2022/11/12 10:41:31;;;;;;;6.90;4.93;;;;;;;;;;4964322;28;21208;-55
2022/11/12 10:44:00;;;;;;;6.00;4.87;;;;;;;;;;4941175;28;20447;-56
2022/11/12 10:46:38;;;;;;;7.00;4.50;;;;;;;;;;4961729;28;20821;-57
2022/11/12 10:49:05;;;;;;;5.33;4.70;;;;;;;;;;4937214;28;20867;-57
2022/11/12 10:51:33;;;;;;;8.33;6.10;;;;;;;;;;4958930;28;20445;-57
2022/11/12 10:53:59;;;;;;;8.40;6.20;;;;;;;;;;4945094;28;20456;-57
2022/11/12 10:56:26;;;;;;;5.93;5.33;;;;;;;;;;4948462;28;20882;-54
2022/11/12 10:59:11;;;;;;;6.43;5.13;;;;;;;;;;4938639;28;20565;-57
2022/11/12 11:01:37;;;;;;;11.90;4.53;;;;;;;;;;4956479;28;20963;-56
2022/11/12 11:04:03;;;;;;;6.10;4.47;;;;;;;;;;4948017;28;20442;-57
2022/11/12 11:06:29;;;;;;;5.90;5.20;;;;;;;;;;4962604;28;20959;-56
2022/11/12 11:09:15;;;;;;;5.10;4.50;;;;;;;;;;4956802;28;20447;-55
2022/11/12 11:11:48;;;;;;;4.63;4.23;;;;;;;;;;4929976;28;22767;-55
2022/11/12 11:14:23;;;;;;;5.40;4.90;;;;;;;;;;4959230;28;20476;-55
2022/11/12 11:16:52;;;;;;;7.00;6.30;;;;;;;;;;4955364;28;20504;-60
2022/11/12 11:19:18;;;;;;;5.30;4.73;;;;;;;;;;4961856;28;20486;-55
2022/11/12 11:21:44;;;;;;;6.20;4.63;;;;;;;;;;4903858;28;20482;-55
2022/11/12 11:24:16;;;;;;;6.43;4.57;;;;;;;;;;4959132;28;20442;-58
2022/11/12 11:26:52;;;;;;;4.87;4.03;;;;;;;;;;4934895;28;20444;-55
2022/11/12 11:29:24;;;;;;;4.97;4.47;;;;;;;;;;4944351;28;20472;-55
2022/11/12 11:31:59;;;;;;;5.60;4.60;;;;;;;;;;4933974;28;20434;-57
2022/11/12 11:34:32;;;;;;;6.00;5.40;;;;;;;;;;4941761;28;20836;-58
2022/11/12 11:37:03;;;;;;;9.20;4.70;;;;;;;;;;4916912;28;20437;-57
2022/11/12 11:39:35;;;;;;;5.43;4.00;;;;;;;;;;4939436;28;20568;-57
2022/11/12 11:42:12;;;;;;;5.33;4.30;;;;;;;;;;4953042;28;20426;-56
2022/11/12 11:44:38;;;;;;;6.70;5.17;;;;;;;;;;4935775;28;20438;-56
2022/11/12 11:47:04;;;;;;;4.60;4.13;;;;;;;;;;4938365;28;20505;-56
2022/11/12 11:49:58;;;;;;;4.67;4.23;;;;;;;;;;4958997;28;20442;-56
2022/11/12 11:52:43;;;;;;;5.30;4.70;;;;;;;;;;4944105;28;20931;-56
2022/11/12 11:55:21;;;;;;;5.47;4.97;;;;;;;;;;4943036;28;20444;-57
2022/11/12 11:58:07;;;;;;;7.33;5.10;;;;;;;;;;4963217;28;20433;-57
2022/11/12 12:00:40;;;;;;;6.70;5.23;;;;;;;;;;4886810;28;20483;-58
2022/11/12 12:03:12;;;;;;;5.03;4.50;;;;;;;;;;4942441;28;20446;-57
2022/11/12 12:05:42;;;;;;;5.57;4.60;;;;;;;;;;4937109;28;20476;-56
2022/11/12 12:08:09;;;;;;;5.90;4.70;;;;;;;;;;4916703;28;20457;-59
2022/11/12 12:10:54;;;;;;;5.30;4.57;;;;;;;;;;4955922;28;20454;-57
2022/11/12 12:13:26;;;;;;;5.03;4.53;;;;;;;;;;4955808;28;20946;-58
2022/11/12 12:16:04;;;;;;;5.13;4.63;;;;;;;;;;4959957;28;20449;-58
2022/11/12 12:18:35;;;;;;;5.80;4.57;;;;;;;;;;4937105;28;20481;-58
2022/11/12 12:21:03;;;;;;;5.23;4.43;;;;;;;;;;4959726;28;20441;-58
2022/11/12 12:23:36;;;;;;;6.27;4.57;;;;;;;;;;4904899;28;20437;-56
2022/11/12 12:26:02;;;;;;;4.73;4.30;;;;;;;;;;4959351;28;20593;-57
2022/11/12 12:28:36;;;;;;;6.80;4.27;;;;;;;;;;4925035;28;20950;-57
2022/11/12 12:31:07;;;;;;;7.40;4.67;;;;;;;;;;4961496;28;20524;-57
2022/11/12 12:33:43;;;;;;;4.43;4.03;;;;;;;;;;4935732;28;20444;-57
2022/11/12 12:36:12;;;;;;;5.80;3.97;;;;;;;;;;4960132;28;20426;-57
2022/11/12 12:38:41;;;;;;;5.17;4.40;;;;;;;;;;4906340;28;20488;-55
2022/11/12 12:41:15;;;;;;;4.67;4.00;;;;;;;;;;4936559;28;20449;-55
2022/11/12 12:43:45;;;;;;;4.70;4.03;;;;;;;;;;4912416;28;22416;-56
2022/11/12 12:46:11;;;;;;;4.90;4.07;;;;;;;;;;4937551;28;20449;-56
2022/11/12 12:48:38;;;;;;;7.73;4.80;;;;;;;;;;4931476;28;21349;-56
2022/11/12 12:51:04;;;;;;;6.60;4.87;;;;;;;;;;4940711;28;20429;-57
2022/11/12 12:53:35;;;;;;;5.10;4.27;;;;;;;;;;4951495;28;20441;-57
2022/11/12 12:56:03;;;;;;;7.17;5.03;;;;;;;;;;4952609;28;20442;-56
2022/11/12 12:58:45;;;;;;;6.33;4.90;;;;;;;;;;4954856;28;20994;-55
2022/11/12 13:01:21;;;;;;;5.20;4.70;;;;;;;;;;4939643;28;20544;-61
2022/11/12 13:03:50;;;;;;;6.80;6.10;;;;;;;;;;4954767;28;20442;-57
2022/11/12 13:06:26;;;;;;;9.17;5.60;;;;;;;;;;4928489;28;20509;-57
2022/11/12 13:08:52;;;;;;;5.17;4.53;;;;;;;;;;4940400;28;20520;-57
2022/11/12 13:14:37;;;;;;;10.43;7.30;;;;;;;;;;4951101;28;20434;-55
2022/11/12 13:17:03;;;;;;;8.33;5.70;;;;;;;;;;4929916;28;20443;-56
2022/11/12 13:19:29;;;;;;;5.57;4.80;;;;;;;;;;4953366;28;20477;-58
2022/11/12 13:22:14;;;;;;;4.90;4.33;;;;;;;;;;4934595;28;20445;-56
2022/11/12 13:24:59;;;;;;;4.23;3.77;;;;;;;;;;4953365;28;20178;-57
2022/11/12 13:27:41;;;;;;;4.50;3.83;;;;;;;;;;4924842;28;20456;-55
2022/11/12 13:30:08;;;;;;;4.70;3.70;;;;;;;;;;4960797;28;20465;-57
2022/11/12 13:32:37;;;;;;;4.63;3.30;;;;;;;;;;4939298;28;20517;-57
2022/11/12 13:35:21;;;;;;;6.43;3.70;;;;;;;;;;4960022;28;20438;-57
2022/11/12 13:38:03;;;;;;;6.53;4.07;;;;;;;;;;4938133;28;20457;-58
2022/11/12 13:40:33;;;;;;;6.10;3.67;;;;;;;;;;4958657;28;20460;-58
2022/11/12 13:43:14;;;;;;;5.73;3.60;;;;;;;;;;4951488;28;20442;-57
2022/11/12 13:45:51;;;;;;;5.70;4.37;;;;;;;;;;4944014;28;20524;-57
2022/11/12 13:48:23;;;;;;;6.87;5.10;;;;;;;;;;4946167;28;20530;-57
2022/11/12 13:50:59;;;;;;;5.40;4.30;;;;;;;;;;4961740;28;20429;-56
2022/11/12 13:53:26;;;;;;;6.63;3.80;;;;;;;;;;4928792;28;20457;-55
2022/11/12 13:55:58;;;;;;;5.13;3.73;;;;;;;;;;4939378;28;20446;-56
2022/11/12 13:58:26;;;;;;;4.90;3.90;;;;;;;;;;4932816;28;21028;-55
2022/11/12 14:00:56;;;;;;;4.23;3.70;;;;;;;;;;4953727;28;20426;-55
2022/11/12 14:03:22;;;;;;;6.50;5.80;;;;;;;;;;4962391;28;20430;-56
2022/11/12 14:05:48;;;;;;;8.77;4.87;;;;;;;;;;4942261;28;20500;-59
2022/11/12 14:08:30;;;;;;;6.40;3.90;;;;;;;;;;4951082;28;21061;-55
2022/11/12 14:11:16;;;;;;;4.90;4.13;;;;;;;;;;4911715;28;21009;-56
2022/11/12 14:14:00;;;;;;;7.73;4.57;;;;;;;;;;4908061;28;20450;-55
2022/11/12 14:16:26;;;;;;;8.10;5.23;;;;;;;;;;4934281;28;23027;-56
2022/11/12 14:18:52;;;;;;;7.10;5.10;;;;;;;;;;4943837;28;21188;-57
2022/11/12 14:21:18;;;;;;;6.27;4.60;;;;;;;;;;4932835;28;20477;-58
2022/11/12 14:23:45;;;;;;;8.33;5.30;;;;;;;;;;4941478;28;20454;-55
2022/11/12 14:26:20;;;;;;;6.27;5.13;;;;;;;;;;4923603;28;21069;-56
2022/11/12 14:28:51;;;;;;;7.17;5.53;;;;;;;;;;4920814;28;20453;-56
2022/11/12 14:31:20;;;;;;;7.53;5.77;;;;;;;;;;4918805;28;21582;-56
2022/11/12 14:33:46;;;;;;;6.33;5.60;;;;;;;;;;4920971;28;20915;-56
2022/11/12 14:36:13;;;;;;;7.53;6.30;;;;;;;;;;4931717;28;20438;-57
2022/11/12 14:38:43;;;;;;;6.90;5.80;;;;;;;;;;4942775;28;20572;-56
2022/11/12 14:41:10;;;;;;;9.00;5.10;;;;;;;;;;4935809;28;20747;-58
2022/11/12 14:43:36;;;;;;;12.23;5.43;;;;;;;;;;4935396;28;20478;-57
2022/11/12 14:46:03;;;;;;;8.77;5.40;;;;;;;;;;4922465;28;20513;-59
2022/11/12 14:48:49;;;;;;;7.07;6.30;;;;;;;;;;4936112;28;20438;-59
2022/11/12 14:51:15;;;;;;;10.30;6.63;;;;;;;;;;4937932;28;21678;-56
2022/11/12 14:53:43;;;;;;;6.40;5.70;;;;;;;;;;4927515;28;20454;-57
2022/11/12 14:56:10;;;;;;;7.40;6.37;;;;;;;;;;4931360;28;21115;-57
2022/11/12 14:58:36;;;;;;;10.77;5.90;;;;;;;;;;4947270;28;20484;-54
2022/11/12 15:01:30;;;;;;;5.20;4.43;;;;;;;;;;4927632;28;20507;-58
2022/11/12 15:04:12;;;;;;;6.50;5.43;;;;;;;;;;4931578;28;21081;-58
2022/11/12 15:06:38;;;;;;;7.57;5.40;;;;;;;;;;4931265;28;20463;-57
2022/11/12 15:09:04;;;;;;;7.30;4.37;;;;;;;;;;4956438;28;20430;-55
2022/11/12 15:11:42;;;;;;;6.13;5.43;;;;;;;;;;4935817;28;20458;-57
2022/11/12 15:14:09;;;;;;;7.97;4.93;;;;;;;;;;4955075;28;20445;-56